KLM2632 EHAM-EBBR
Flight info
| Callsign | KLM2632 |
|---|---|
| Flight time | 0h 27m |
| Altitude | 12000 |
| Route | WOODY |
| Aircraft | B738/M-SDE2E3FGHIRWXY/LB1 |
Departure
| Time | 2026-04-30 07:10 |
|---|---|
| Airport | Amsterdam Airport Schiphol (EHAM) |
Arrival
| Time | 2026-04-30 07:38 |
|---|---|
| Airport | Brussels Airport (EBBR) |
| Time | Latitude | Longitude | Altitude | Speed | Heading |
|---|---|---|---|---|---|
| 2026-04-30 06:43 | 52.31369 | 4.75593 | -3 ft | 0 kts | 97° |
| 2026-04-30 07:00 | 52.31370 | 4.75589 | -3 ft | 2 kts | 97° |
| 2026-04-30 07:00 | 52.31371 | 4.75567 | -3 ft | 4 kts | 90° |
| 2026-04-30 07:01 | 52.31367 | 4.75524 | -3 ft | 4 kts | 72° |
| 2026-04-30 07:01 | 52.31356 | 4.75485 | -3 ft | 4 kts | 52° |
| 2026-04-30 07:01 | 52.31337 | 4.75457 | -3 ft | 4 kts | 22° |
| 2026-04-30 07:01 | 52.31323 | 4.75451 | -3 ft | 0 kts | 359° |
| 2026-04-30 07:04 | 52.31324 | 4.75451 | -3 ft | 0 kts | 359° |
| 2026-04-30 07:05 | 52.31389 | 4.75449 | -3 ft | 4 kts | 357° |
| 2026-04-30 07:05 | 52.31418 | 4.75433 | -3 ft | 8 kts | 310° |
| 2026-04-30 07:05 | 52.31423 | 4.75282 | -3 ft | 16 kts | 266° |
| 2026-04-30 07:06 | 52.31417 | 4.75118 | -3 ft | 12 kts | 267° |
| 2026-04-30 07:06 | 52.31413 | 4.75001 | -3 ft | 10 kts | 267° |
| 2026-04-30 07:06 | 52.31412 | 4.74893 | -3 ft | 8 kts | 267° |
| 2026-04-30 07:06 | 52.31409 | 4.74808 | -3 ft | 9 kts | 265° |
| 2026-04-30 07:07 | 52.31411 | 4.74707 | -3 ft | 7 kts | 300° |
| 2026-04-30 07:07 | 52.31433 | 4.74682 | -3 ft | 7 kts | 347° |
| 2026-04-30 07:07 | 52.31491 | 4.74670 | -3 ft | 7 kts | 358° |
| 2026-04-30 07:07 | 52.31525 | 4.74669 | -3 ft | 2 kts | 359° |
| 2026-04-30 07:08 | 52.31560 | 4.74668 | -3 ft | 8 kts | 359° |
| 2026-04-30 07:08 | 52.31614 | 4.74667 | -3 ft | 7 kts | 359° |
| 2026-04-30 07:08 | 52.31657 | 4.74678 | -3 ft | 6 kts | 34° |
| 2026-04-30 07:08 | 52.31669 | 4.74721 | -3 ft | 7 kts | 80° |
| 2026-04-30 07:09 | 52.31672 | 4.74787 | -3 ft | 4 kts | 89° |
| 2026-04-30 07:09 | 52.31673 | 4.74808 | -3 ft | 0 kts | 88° |
| 2026-04-30 07:09 | 52.31675 | 4.74905 | -3 ft | 30 kts | 86° |
| 2026-04-30 07:10 | 52.31706 | 4.75586 | -3 ft | 89 kts | 86° |
| 2026-04-30 07:10 | 52.31745 | 4.76879 | 32 ft | 133 kts | 86° |
| 2026-04-30 07:10 | 52.31848 | 4.78380 | 586 ft | 132 kts | 79° |
| 2026-04-30 07:10 | 52.32001 | 4.79908 | 906 ft | 144 kts | 86° |
| 2026-04-30 07:11 | 52.31943 | 4.81584 | 1462 ft | 150 kts | 110° |
| 2026-04-30 07:11 | 52.31239 | 4.82808 | 2140 ft | 159 kts | 144° |
| 2026-04-30 07:11 | 52.30105 | 4.83423 | 2613 ft | 183 kts | 162° |
| 2026-04-30 07:11 | 52.28797 | 4.83835 | 2916 ft | 205 kts | 162° |
| 2026-04-30 07:12 | 52.27354 | 4.84281 | 3497 ft | 214 kts | 163° |
| 2026-04-30 07:12 | 52.25885 | 4.84701 | 4291 ft | 217 kts | 167° |
| 2026-04-30 07:12 | 52.24334 | 4.84840 | 4875 ft | 231 kts | 173° |
| 2026-04-30 07:12 | 52.22635 | 4.84818 | 5312 ft | 250 kts | 176° |
| 2026-04-30 07:13 | 52.20886 | 4.84756 | 5900 ft | 259 kts | 176° |
| 2026-04-30 07:13 | 52.19060 | 4.84696 | 6645 ft | 265 kts | 176° |
| 2026-04-30 07:13 | 52.17212 | 4.84638 | 7461 ft | 268 kts | 176° |
| 2026-04-30 07:13 | 52.15333 | 4.84591 | 8218 ft | 272 kts | 176° |
| 2026-04-30 07:14 | 52.13419 | 4.84548 | 8990 ft | 277 kts | 176° |
| 2026-04-30 07:14 | 52.11477 | 4.84505 | 9756 ft | 282 kts | 176° |
| 2026-04-30 07:14 | 52.09496 | 4.84459 | 10503 ft | 287 kts | 176° |
| 2026-04-30 07:14 | 52.07470 | 4.84417 | 11184 ft | 296 kts | 175° |
| 2026-04-30 07:15 | 52.05357 | 4.84372 | 11631 ft | 314 kts | 175° |
| 2026-04-30 07:15 | 52.03100 | 4.84168 | 11954 ft | 338 kts | 183° |
| 2026-04-30 07:15 | 52.00730 | 4.83293 | 12312 ft | 360 kts | 193° |
| 2026-04-30 07:15 | 51.98364 | 4.81728 | 12432 ft | 376 kts | 202° |
| 2026-04-30 07:16 | 51.96024 | 4.79675 | 12444 ft | 385 kts | 204° |
| 2026-04-30 07:16 | 51.93639 | 4.77701 | 12441 ft | 385 kts | 202° |
| 2026-04-30 07:16 | 51.91231 | 4.75794 | 12436 ft | 384 kts | 202° |
| 2026-04-30 07:16 | 51.88831 | 4.73907 | 12433 ft | 384 kts | 202° |
| 2026-04-30 07:17 | 51.86422 | 4.72020 | 12429 ft | 384 kts | 202° |
| 2026-04-30 07:17 | 51.84014 | 4.70142 | 12428 ft | 384 kts | 202° |
| 2026-04-30 07:17 | 51.79199 | 4.66391 | 12424 ft | 386 kts | 202° |
| 2026-04-30 07:18 | 51.76783 | 4.64520 | 12422 ft | 384 kts | 202° |
| 2026-04-30 07:18 | 51.74381 | 4.62659 | 12420 ft | 383 kts | 201° |
| 2026-04-30 07:18 | 51.71971 | 4.60796 | 12417 ft | 384 kts | 202° |
| 2026-04-30 07:18 | 51.69565 | 4.58933 | 12415 ft | 383 kts | 201° |
| 2026-04-30 07:19 | 51.67165 | 4.57073 | 12412 ft | 383 kts | 201° |
| 2026-04-30 07:19 | 51.64762 | 4.55205 | 12412 ft | 385 kts | 202° |
| 2026-04-30 07:19 | 51.62382 | 4.53357 | 12407 ft | 385 kts | 202° |
| 2026-04-30 07:19 | 51.59941 | 4.51459 | 12402 ft | 383 kts | 202° |
| 2026-04-30 07:20 | 51.57570 | 4.49628 | 12403 ft | 383 kts | 202° |
| 2026-04-30 07:20 | 51.55139 | 4.47756 | 12396 ft | 383 kts | 202° |
| 2026-04-30 07:20 | 51.52768 | 4.45928 | 12390 ft | 383 kts | 201° |
| 2026-04-30 07:20 | 51.50365 | 4.44078 | 12387 ft | 383 kts | 201° |
| 2026-04-30 07:21 | 51.48000 | 4.42270 | 12379 ft | 369 kts | 201° |
| 2026-04-30 07:21 | 51.45724 | 4.40525 | 12379 ft | 358 kts | 201° |
| 2026-04-30 07:21 | 51.43491 | 4.38816 | 12378 ft | 353 kts | 201° |
| 2026-04-30 07:21 | 51.41289 | 4.37130 | 12365 ft | 350 kts | 201° |
| 2026-04-30 07:22 | 51.36901 | 4.33794 | 11816 ft | 348 kts | 201° |
| 2026-04-30 07:22 | 51.34712 | 4.32140 | 11526 ft | 346 kts | 201° |
| 2026-04-30 07:22 | 51.32561 | 4.30516 | 11339 ft | 338 kts | 201° |
| 2026-04-30 07:23 | 51.30440 | 4.29029 | 11148 ft | 327 kts | 193° |
| 2026-04-30 07:23 | 51.28259 | 4.28650 | 10979 ft | 309 kts | 172° |
| 2026-04-30 07:23 | 51.26187 | 4.29210 | 10830 ft | 296 kts | 159° |
| 2026-04-30 07:23 | 51.24415 | 4.30701 | 10517 ft | 285 kts | 134° |
| 2026-04-30 07:24 | 51.23282 | 4.33167 | 10408 ft | 271 kts | 114° |
| 2026-04-30 07:24 | 51.22630 | 4.35938 | 10241 ft | 265 kts | 109° |
| 2026-04-30 07:24 | 51.21913 | 4.38680 | 9765 ft | 271 kts | 113° |
| 2026-04-30 07:24 | 51.21078 | 4.41379 | 9441 ft | 270 kts | 116° |
| 2026-04-30 07:25 | 51.20056 | 4.43876 | 9117 ft | 272 kts | 135° |
| 2026-04-30 07:25 | 51.18380 | 4.45247 | 8842 ft | 278 kts | 166° |
| 2026-04-30 07:25 | 51.16429 | 4.45016 | 8371 ft | 292 kts | 195° |
| 2026-04-30 07:25 | 51.14601 | 4.43538 | 8014 ft | 294 kts | 208° |
| 2026-04-30 07:26 | 51.12930 | 4.41741 | 7697 ft | 288 kts | 211° |
| 2026-04-30 07:26 | 51.11296 | 4.39962 | 7387 ft | 281 kts | 209° |
| 2026-04-30 07:26 | 51.09672 | 4.38296 | 7109 ft | 274 kts | 207° |
| 2026-04-30 07:26 | 51.08085 | 4.36701 | 6787 ft | 268 kts | 207° |
| 2026-04-30 07:27 | 51.06506 | 4.35133 | 6377 ft | 266 kts | 207° |
| 2026-04-30 07:27 | 51.04937 | 4.33587 | 5990 ft | 264 kts | 207° |
| 2026-04-30 07:27 | 51.03368 | 4.32050 | 5569 ft | 265 kts | 207° |
| 2026-04-30 07:27 | 51.01766 | 4.30485 | 5253 ft | 262 kts | 206° |
| 2026-04-30 07:28 | 51.00271 | 4.29035 | 4975 ft | 254 kts | 206° |
| 2026-04-30 07:28 | 50.98802 | 4.27602 | 4850 ft | 235 kts | 205° |
| 2026-04-30 07:28 | 50.97453 | 4.26294 | 4732 ft | 214 kts | 204° |
| 2026-04-30 07:28 | 50.96219 | 4.25094 | 4580 ft | 196 kts | 204° |
| 2026-04-30 07:29 | 50.95097 | 4.24007 | 4409 ft | 183 kts | 203° |
| 2026-04-30 07:29 | 50.94054 | 4.22989 | 4216 ft | 170 kts | 202° |
| 2026-04-30 07:29 | 50.93034 | 4.22103 | 3878 ft | 163 kts | 192° |
| 2026-04-30 07:29 | 50.91992 | 4.21673 | 3629 ft | 146 kts | 178° |
| 2026-04-30 07:30 | 50.90240 | 4.21555 | 3338 ft | 111 kts | 167° |
| 2026-04-30 07:30 | 50.89381 | 4.21567 | 3423 ft | 124 kts | 167° |
| 2026-04-30 07:30 | 50.88473 | 4.21591 | 3449 ft | 135 kts | 168° |
| 2026-04-30 07:31 | 50.87545 | 4.21612 | 3288 ft | 131 kts | 168° |
| 2026-04-30 07:31 | 50.86636 | 4.21627 | 3077 ft | 127 kts | 167° |
| 2026-04-30 07:31 | 50.85766 | 4.21643 | 2875 ft | 126 kts | 167° |
| 2026-04-30 07:31 | 50.84905 | 4.21659 | 2664 ft | 123 kts | 167° |
| 2026-04-30 07:32 | 50.84056 | 4.21675 | 2454 ft | 121 kts | 167° |
| 2026-04-30 07:32 | 50.83315 | 4.22088 | 2197 ft | 113 kts | 124° |
| 2026-04-30 07:32 | 50.83159 | 4.23264 | 2031 ft | 113 kts | 90° |
| 2026-04-30 07:32 | 50.83336 | 4.24466 | 1973 ft | 112 kts | 79° |
| 2026-04-30 07:33 | 50.83606 | 4.25626 | 1975 ft | 113 kts | 76° |
| 2026-04-30 07:33 | 50.83902 | 4.26797 | 2005 ft | 117 kts | 75° |
| 2026-04-30 07:33 | 50.84194 | 4.27983 | 2023 ft | 117 kts | 75° |
| 2026-04-30 07:33 | 50.84487 | 4.29190 | 2011 ft | 118 kts | 75° |
| 2026-04-30 07:34 | 50.84776 | 4.30378 | 2007 ft | 115 kts | 75° |
| 2026-04-30 07:34 | 50.85062 | 4.31558 | 2006 ft | 115 kts | 75° |
| 2026-04-30 07:34 | 50.85346 | 4.32735 | 2005 ft | 113 kts | 76° |
| 2026-04-30 07:34 | 50.85625 | 4.33900 | 2007 ft | 114 kts | 76° |
| 2026-04-30 07:35 | 50.85903 | 4.35081 | 2017 ft | 115 kts | 76° |
| 2026-04-30 07:35 | 50.86179 | 4.36247 | 2004 ft | 117 kts | 76° |
| 2026-04-30 07:35 | 50.86475 | 4.37516 | 1892 ft | 123 kts | 76° |
| 2026-04-30 07:35 | 50.86767 | 4.38780 | 1669 ft | 120 kts | 75° |
| 2026-04-30 07:36 | 50.87060 | 4.40049 | 1453 ft | 134 kts | 73° |
| 2026-04-30 07:36 | 50.87360 | 4.41430 | 1336 ft | 130 kts | 72° |
| 2026-04-30 07:36 | 50.87691 | 4.42782 | 1069 ft | 134 kts | 70° |
| 2026-04-30 07:36 | 50.88020 | 4.44200 | 853 ft | 137 kts | 71° |
| 2026-04-30 07:37 | 50.88346 | 4.45644 | 648 ft | 131 kts | 69° |
| 2026-04-30 07:37 | 50.88657 | 4.46913 | 415 ft | 128 kts | 71° |
| 2026-04-30 07:37 | 50.88948 | 4.48225 | 225 ft | 121 kts | 66° |
| 2026-04-30 07:37 | 50.89204 | 4.49320 | 192 ft | 83 kts | 68° |
| 2026-04-30 07:38 | 50.89290 | 4.49697 | 192 ft | 7 kts | 66° |
| 2026-04-30 07:38 | 50.89326 | 4.49753 | 192 ft | 10 kts | 358° |
| 2026-04-30 07:38 | 50.89344 | 4.49659 | 192 ft | 6 kts | 274° |
| 2026-04-30 07:38 | 50.89349 | 4.49626 | 192 ft | 0 kts | 286° |
| 2026-04-30 07:39 | 50.89350 | 4.49618 | 192 ft | 5 kts | 293° |
| 2026-04-30 07:39 | 50.89396 | 4.49491 | 192 ft | 18 kts | 300° |
| 2026-04-30 07:39 | 50.89392 | 4.49367 | 192 ft | 9 kts | 250° |
| 2026-04-30 07:39 | 50.89379 | 4.49300 | 192 ft | 4 kts | 253° |
| 2026-04-30 07:40 | 50.89367 | 4.49240 | 192 ft | 10 kts | 252° |
| 2026-04-30 07:40 | 50.89348 | 4.49107 | 192 ft | 11 kts | 277° |
| 2026-04-30 07:40 | 50.89375 | 4.49018 | 192 ft | 7 kts | 301° |
| 2026-04-30 07:40 | 50.89391 | 4.48982 | 192 ft | 2 kts | 304° |
| 2026-04-30 07:41 | 50.89408 | 4.48939 | 192 ft | 6 kts | 302° |
| 2026-04-30 07:41 | 50.89425 | 4.48896 | 192 ft | 4 kts | 302° |
| 2026-04-30 07:41 | 50.89437 | 4.48866 | 192 ft | 0 kts | 304° |